Time;durP1;ratioP1;P1;durP2;ratioP2;P2;SDS_P1;SDS_P2;PMS_P1;PMS_P2;Temp;Humidity;BMP_temperature;BMP_pressure;BME280_temperature;BME280_humidity;BME280_pressure;Samples;Min_cycle;Max_cycle;Signal;HPM_P1;HPM_P2
2022/09/25 00:01:05;;;;;;;16.35;11.63;;;;;;;12.21;82.38;98514.13;5091887;28;20019;-82
2022/09/25 00:03:31;;;;;;;16.50;10.98;;;;;;;11.77;85.55;98508.47;5106846;28;20382;-81
2022/09/25 00:06:03;;;;;;;14.95;11.95;;;;;;;11.76;86.04;98526.38;5105907;28;20051;-82
2022/09/25 00:08:28;;;;;;;16.08;12.05;;;;;;;11.73;86.54;98542.13;5106408;28;20039;-82
2022/09/25 00:10:54;;;;;;;12.77;9.52;;;;;;;12.32;80.33;98529.13;5086994;28;20384;-82
2022/09/25 00:13:20;;;;;;;10.02;7.90;;;;;;;12.65;78.55;98534.72;5111377;28;20034;-82
2022/09/25 00:15:53;;;;;;;15.38;10.23;;;;;;;12.74;79.21;98533.13;5108843;28;20034;-82
2022/09/25 00:21:05;;;;;;;15.82;11.40;;;;;;;11.86;84.72;98517.56;5109873;28;20092;-82
2022/09/25 00:23:31;;;;;;;14.57;11.07;;;;;;;11.74;85.65;98519.66;5110132;28;20573;-82
2022/09/25 00:25:58;;;;;;;17.95;12.45;;;;;;;11.85;84.64;98522.13;5090708;28;20031;-82
2022/09/25 00:28:24;;;;;;;17.25;12.50;;;;;;;11.63;86.18;98515.31;5108190;28;20027;-82
2022/09/25 00:30:49;;;;;;;15.98;11.23;;;;;;;11.64;87.16;98519.63;5106028;28;20491;-82
2022/09/25 00:33:14;;;;;;;17.58;12.30;;;;;;;11.66;86.77;98518.28;5108230;28;20054;-82
2022/09/25 00:35:40;;;;;;;18.67;13.10;;;;;;;11.34;87.84;98504.28;5090270;28;20076;-82
2022/09/25 00:38:05;;;;;;;13.43;9.55;;;;;;;11.55;87.95;98526.53;5091153;28;20039;-82
2022/09/25 00:40:30;;;;;;;17.05;12.07;;;;;;;11.87;83.55;98503.94;5091616;28;20019;-82
2022/09/25 00:42:56;;;;;;;18.27;12.25;;;;;;;11.82;84.39;98511.13;5091349;28;20027;-82
2022/09/25 00:45:21;;;;;;;19.25;12.85;;;;;;;11.56;87.23;98498.72;5091728;28;20035;-81
2022/09/25 00:47:56;;;;;;;18.67;12.95;;;;;;;11.49;88.41;98520.34;5088744;28;20092;-82
2022/09/25 00:50:24;;;;;;;19.35;13.90;;;;;;;11.49;88.49;98522.25;5106286;28;20153;-82
2022/09/25 00:52:53;;;;;;;13.23;9.43;;;;;;;11.57;87.59;98511.84;5105430;28;20024;-81
2022/09/25 00:55:20;;;;;;;13.50;10.98;;;;;;;11.87;84.60;98511.94;5102595;28;20028;-82
2022/09/25 00:57:49;;;;;;;11.73;8.93;;;;;;;12.10;82.64;98507.19;5100242;28;20028;-82
2022/09/25 01:00:15;;;;;;;18.63;12.77;;;;;;;12.40;80.58;98515.22;5105383;28;20020;-82
2022/09/25 01:02:45;;;;;;;19.90;14.20;;;;;;;11.68;86.57;98500.16;5088344;28;20023;-82
2022/09/25 01:05:17;;;;;;;19.98;14.07;;;;;;;11.66;87.16;98512.94;5086376;28;20036;-82
2022/09/25 01:07:47;;;;;;;18.52;13.65;;;;;;;11.70;87.00;98521.25;5105829;28;20118;-81
2022/09/25 01:10:15;;;;;;;11.90;8.77;;;;;;;11.65;85.79;98500.63;5095916;28;20031;-82
2022/09/25 01:12:44;;;;;;;11.02;8.90;;;;;;;12.32;80.18;98508.50;5103285;28;20028;-82
2022/09/25 01:15:11;;;;;;;18.75;13.65;;;;;;;12.31;81.12;98508.78;5120000;27;20039;-81
2022/09/25 01:17:56;;;;;;;12.35;9.73;;;;;;;12.16;83.24;98522.16;5104896;28;20023;-82
2022/09/25 01:20:49;;;;;;;20.50;14.13;;;;;;;11.89;86.65;98517.84;5102053;28;20028;-82
2022/09/25 01:23:36;;;;;;;23.30;14.52;;;;;;;11.74;87.21;98515.13;5107068;28;20080;-81
2022/09/25 01:26:23;;;;;;;18.38;13.38;;;;;;;11.77;87.04;98516.47;5100994;28;20031;-82
2022/09/25 01:28:57;;;;;;;;;;;;;;;11.80;86.21;98516.75;5108595;28;20031;-82
2022/09/25 01:31:38;;;;;;;12.77;8.95;;;;;;;11.97;83.83;98509.28;5104608;28;19924;-82
2022/09/25 01:34:23;;;;;;;18.50;13.63;;;;;;;11.80;86.89;98515.94;5099443;28;20055;-81
2022/09/25 01:37:17;;;;;;;20.42;14.25;;;;;;;11.69;87.39;98507.09;5106380;28;20050;-81
2022/09/25 01:40:06;;;;;;;19.25;13.60;;;;;;;11.50;87.25;98483.75;5105080;28;20028;-82
2022/09/25 01:42:45;;;;;;;18.50;12.77;;;;;;;11.91;84.53;98505.00;5103841;28;20049;-81
2022/09/25 01:45:19;;;;;;;14.15;9.55;;;;;;;12.13;82.26;98511.97;5107213;28;20020;-82
2022/09/25 01:47:49;;;;;;;13.73;8.80;;;;;;;12.52;79.22;98507.69;5094290;28;20059;-82
2022/09/25 01:50:28;;;;;;;31.40;20.65;;;;;;;12.57;80.58;98508.50;5107885;28;20115;-82
2022/09/25 01:52:58;;;;;;;17.38;10.00;;;;;;;12.65;78.17;98499.91;5105701;28;20027;-82
2022/09/25 01:55:35;;;;;;;15.32;11.13;;;;;;;12.66;79.17;98512.25;5106274;28;20042;-82
2022/09/25 01:58:19;;;;;;;14.65;9.90;;;;;;;12.75;77.96;98493.75;5107370;28;20098;-82
2022/09/25 02:00:53;;;;;;;14.65;9.95;;;;;;;13.06;76.36;98497.19;5102506;28;20027;-82
2022/09/25 02:03:31;;;;;;;15.20;10.05;;;;;;;13.06;76.83;98511.38;5104282;28;20032;-82
2022/09/25 02:06:01;;;;;;;16.08;10.23;;;;;;;13.19;76.04;98510.81;5104732;28;20027;-82
2022/09/25 02:08:34;;;;;;;22.17;15.82;;;;;;;13.13;77.01;98513.75;5105922;28;20026;-82
2022/09/25 02:11:02;;;;;;;34.67;21.35;;;;;;;12.98;78.75;98508.41;5100737;28;20664;-82
2022/09/25 02:13:40;;;;;;;32.20;21.60;;;;;;;12.68;80.76;98509.28;5109191;28;20419;-82
2022/09/25 02:16:20;;;;;;;36.78;23.08;;;;;;;12.75;78.68;98494.53;5108378;28;20035;-82
2022/09/25 02:21:49;;;;;;;21.52;14.25;;;;;;;12.97;77.40;98501.47;5102852;28;20118;-83
2022/09/25 02:24:28;;;;;;;17.90;11.77;;;;;;;13.13;75.48;98490.47;5105769;28;20020;-83
2022/09/25 02:26:55;;;;;;;15.07;10.68;;;;;;;12.99;75.76;98473.34;5111433;28;20037;-82
2022/09/25 02:29:22;;;;;;;32.83;22.45;;;;;;;12.65;80.58;98494.56;5111945;28;20032;-82
2022/09/25 02:31:54;;;;;;;18.10;12.65;;;;;;;12.94;76.66;98496.66;5101454;28;20578;-82
2022/09/25 02:34:21;;;;;;;17.10;11.52;;;;;;;13.21;75.69;98502.50;5111522;28;20458;-82
2022/09/25 02:36:47;;;;;;;17.45;12.60;;;;;;;13.01;75.90;98487.25;5105329;28;20023;-82
2022/09/25 02:39:17;;;;;;;32.25;21.75;;;;;;;12.77;79.37;98507.69;5092044;28;20085;-82
2022/09/25 02:41:48;;;;;;;18.35;12.75;;;;;;;12.65;78.89;98510.63;5109853;28;20040;-82
2022/09/25 02:44:30;;;;;;;30.25;19.40;;;;;;;12.42;80.93;98511.19;5112781;28;20076;-82
2022/09/25 02:47:19;;;;;;;36.67;24.92;;;;;;;11.87;85.94;98503.94;5108408;28;20037;-82
2022/09/25 02:49:54;;;;;;;34.03;22.38;;;;;;;11.94;83.89;98501.00;5108733;28;20502;-82
2022/09/25 02:52:55;;;;;;;34.88;22.40;;;;;;;11.63;86.69;98488.59;5106846;28;20031;-82
2022/09/25 02:55:32;;;;;;;36.78;21.88;;;;;;;11.67;85.88;98485.16;5108955;28;20035;-82
2022/09/25 02:58:16;;;;;;;22.80;17.60;;;;;;;11.94;85.27;98503.66;5109494;28;20516;-82
2022/09/25 03:00:46;;;;;;;35.92;23.92;;;;;;;12.03;84.13;98494.06;5105340;28;20068;-82
2022/09/25 03:03:15;;;;;;;37.25;23.33;;;;;;;12.10;84.39;98502.59;5107649;28;20117;-82
2022/09/25 03:05:41;;;;;;;40.72;24.13;;;;;;;12.18;83.18;98511.97;5104629;28;20055;-82
2022/09/25 03:10:52;;;;;;;15.80;11.70;;;;;;;12.69;77.87;98505.53;5117276;27;20489;-82
2022/09/25 03:13:31;;;;;;;19.30;12.27;;;;;;;12.69;77.89;98498.31;5108577;28;20036;-82
2022/09/25 03:16:05;;;;;;;25.48;17.40;;;;;;;12.79;78.78;98513.56;5105857;28;20030;-82
2022/09/25 03:18:31;;;;;;;24.80;17.13;;;;;;;12.92;77.93;98510.31;5106013;28;20031;-82
2022/09/25 03:20:57;;;;;;;19.50;13.45;;;;;;;12.89;77.73;98518.88;5104160;28;20031;-82
2022/09/25 03:23:23;;;;;;;40.53;23.63;;;;;;;12.35;81.81;98499.94;5107175;28;20039;-83
2022/09/25 03:25:48;;;;;;;24.00;14.93;;;;;;;12.66;78.13;98496.19;5106232;28;20494;-82
2022/09/25 03:28:14;;;;;;;17.33;12.73;;;;;;;12.92;77.26;98515.69;5108359;28;20023;-82
2022/09/25 03:30:40;;;;;;;18.50;12.25;;;;;;;12.94;77.44;98508.19;5090343;28;20035;-82
2022/09/25 03:33:09;;;;;;;38.08;23.80;;;;;;;12.34;82.44;98510.94;5107398;28;20258;-82
2022/09/25 03:35:35;;;;;;;36.03;23.63;;;;;;;11.74;83.59;98455.50;5082890;28;20032;-82
2022/09/25 03:38:00;;;;;;;23.85;14.65;;;;;;;12.76;78.10;98506.06;5086734;28;20110;-82
2022/09/25 03:40:25;;;;;;;29.33;20.15;;;;;;;12.43;81.47;98509.31;5103840;28;20024;-82
2022/09/25 03:42:51;;;;;;;29.90;20.58;;;;;;;12.42;81.42;98513.06;5106532;28;20031;-82
2022/09/25 03:45:16;;;;;;;22.25;14.73;;;;;;;12.73;78.42;98507.41;5106339;28;20031;-82
2022/09/25 03:47:41;;;;;;;19.02;13.20;;;;;;;12.84;77.66;98502.84;5105503;28;20060;-82
2022/09/25 03:50:07;;;;;;;24.15;16.25;;;;;;;12.84;78.48;98492.13;5101719;28;20380;-82
2022/09/25 03:52:33;;;;;;;27.95;19.80;;;;;;;12.87;78.79;98504.16;5105287;28;20031;-82
2022/09/25 03:54:59;;;;;;;29.02;19.52;;;;;;;12.77;79.13;98497.78;5124662;27;20085;-82
2022/09/25 03:57:24;;;;;;;22.25;15.38;;;;;;;12.88;78.47;98482.47;5107341;28;20035;-82
2022/09/25 03:59:50;;;;;;;23.35;15.23;;;;;;;12.75;78.50;98491.84;5107321;28;20045;-82
2022/09/25 04:02:16;;;;;;;19.58;13.10;;;;;;;12.86;77.85;98483.81;5103723;28;20236;-82
2022/09/25 04:04:42;;;;;;;21.73;13.02;;;;;;;12.93;77.20;98485.13;5088632;28;20138;-82
2022/09/25 04:07:09;;;;;;;18.13;13.48;;;;;;;13.08;77.16;98503.09;5089995;28;20414;-82
2022/09/25 04:09:34;;;;;;;21.27;13.85;;;;;;;12.97;77.16;98483.53;5106333;28;20047;-82
2022/09/25 04:11:59;;;;;;;21.50;14.40;;;;;;;12.84;78.08;98489.47;5106749;28;20058;-81
2022/09/25 04:14:25;;;;;;;21.55;15.38;;;;;;;12.89;77.80;98486.75;5103103;28;20038;-82
2022/09/25 04:16:50;;;;;;;21.52;14.32;;;;;;;12.93;77.25;98481.66;5105566;28;20574;-81
2022/09/25 04:19:16;;;;;;;20.02;13.80;;;;;;;13.09;76.71;98496.63;5099217;28;20364;-82
2022/09/25 04:21:41;;;;;;;20.80;14.50;;;;;;;12.82;78.27;98483.53;5088349;28;20033;-82
2022/09/25 04:26:52;;;;;;;33.80;23.65;;;;;;;12.40;81.25;98475.88;5106585;28;20118;-81
2022/09/25 04:29:18;;;;;;;24.23;16.83;;;;;;;12.67;78.07;98478.22;5107305;28;20628;-81
2022/09/25 04:33:44;;;;;;;20.52;14.00;;;;;;;12.96;77.27;98500.66;5109077;28;20074;-82
2022/09/25 04:34:29;;;;;;;20.25;13.70;;;;;;;13.01;76.87;98479.22;5107208;28;20034;-83
2022/09/25 04:36:54;;;;;;;17.48;13.40;;;;;;;13.18;76.58;98478.91;5088674;28;20471;-82
2022/09/25 04:39:20;;;;;;;17.95;12.60;;;;;;;13.15;75.86;98493.66;5110137;28;20425;-82
2022/09/25 04:41:45;;;;;;;16.17;12.15;;;;;;;13.19;76.12;98496.63;5103881;28;20663;-81
2022/09/25 04:44:11;;;;;;;29.30;19.25;;;;;;;12.86;77.40;98481.94;5108028;28;20042;-82
2022/09/25 04:46:37;;;;;;;36.03;22.48;;;;;;;12.69;79.47;98494.81;5098747;28;20028;-81
2022/09/25 04:49:02;;;;;;;30.73;19.65;;;;;;;12.48;80.56;98494.06;5106885;28;20082;-82
2022/09/25 04:51:28;;;;;;;21.10;14.00;;;;;;;12.67;78.92;98499.66;5087210;28;20024;-81
2022/09/25 04:53:55;;;;;;;19.10;13.10;;;;;;;12.77;77.71;98487.06;5089937;28;20039;-81
2022/09/25 04:56:20;;;;;;;15.65;11.90;;;;;;;12.92;77.28;98502.28;5100162;28;20483;-82
2022/09/25 04:58:48;;;;;;;19.85;14.50;;;;;;;12.78;77.09;98487.84;5109205;28;20058;-82
2022/09/25 05:01:16;;;;;;;16.88;13.18;;;;;;;12.80;77.46;98489.19;5086478;28;20072;-82
2022/09/25 05:03:41;;;;;;;27.13;17.85;;;;;;;12.61;78.40;98492.69;5103394;28;20425;-82
2022/09/25 05:06:07;;;;;;;19.27;13.32;;;;;;;12.68;78.51;98490.56;5105844;28;20038;-82
2022/09/25 05:08:32;;;;;;;16.50;12.70;;;;;;;12.70;78.02;98499.94;5101798;28;20154;-82
2022/09/25 05:10:58;;;;;;;34.97;22.90;;;;;;;12.09;83.08;98495.66;5108960;28;20023;-82
2022/09/25 05:13:24;;;;;;;14.32;11.27;;;;;;;12.48;80.04;98503.94;5105701;27;20036;-82
2022/09/25 05:15:49;;;;;;;17.92;12.18;;;;;;;12.76;77.65;98501.50;5100143;28;20520;-82
2022/09/25 05:18:21;;;;;;;16.90;12.27;;;;;;;12.93;77.13;98485.13;5099839;28;20035;-82
2022/09/25 05:20:47;;;;;;;33.88;22.48;;;;;;;12.50;79.67;98483.88;5083268;28;20035;-82
2022/09/25 05:23:13;;;;;;;32.75;21.20;;;;;;;12.58;79.78;98487.91;5101360;28;20491;-82
2022/09/25 05:25:38;;;;;;;16.75;11.32;;;;;;;12.71;77.59;98484.66;5091053;28;20024;-82
2022/09/25 05:28:04;;;;;;;15.43;10.77;;;;;;;12.89;76.87;98485.97;5108769;28;20115;-83
2022/09/25 05:30:31;;;;;;;14.23;10.23;;;;;;;13.09;76.29;98505.47;5103097;28;20380;-82
2022/09/25 05:32:57;;;;;;;17.80;12.07;;;;;;;12.71;76.44;98441.81;5087331;28;20506;-82
2022/09/25 05:35:24;;;;;;;14.63;10.73;;;;;;;13.12;76.22;98490.75;5103986;28;20032;-81
2022/09/25 05:37:50;;;;;;;16.98;11.25;;;;;;;13.15;76.48;98503.59;5104177;28;20031;-83
2022/09/25 05:40:17;;;;;;;18.10;13.07;;;;;;;13.15;76.39;98512.44;5104551;28;20031;-82
2022/09/25 05:42:43;;;;;;;16.40;10.77;;;;;;;12.98;76.80;98506.56;5102819;28;20490;-83
2022/09/25 05:45:13;;;;;;;13.15;9.75;;;;;;;13.10;76.37;98509.78;5102378;28;20031;-82
2022/09/25 05:47:39;;;;;;;16.20;11.63;;;;;;;13.14;76.50;98505.47;5107071;28;20081;-82
2022/09/25 05:50:05;;;;;;;17.15;12.73;;;;;;;12.82;76.92;98483.53;5106886;28;20027;-83
2022/09/25 05:52:31;;;;;;;15.70;11.70;;;;;;;13.05;76.63;98492.91;5096389;28;20039;-82
2022/09/25 05:54:56;;;;;;;16.63;11.07;;;;;;;13.06;76.88;98489.94;5103041;28;20380;-82
2022/09/25 05:57:22;;;;;;;25.80;15.45;;;;;;;12.85;77.36;98491.03;5098774;28;20034;-82
2022/09/25 05:59:48;;;;;;;16.60;12.30;;;;;;;12.94;77.68;98494.78;5104932;28;20068;-82
2022/09/25 06:02:14;;;;;;;18.00;13.00;;;;;;;13.15;76.88;98490.97;5104003;28;20020;-82
2022/09/25 06:04:40;;;;;;;14.65;10.88;;;;;;;13.12;76.86;98491.56;5099806;28;20023;-81
2022/09/25 06:07:05;;;;;;;16.95;11.32;;;;;;;12.99;77.36;98494.78;5102520;28;20092;-82
2022/09/25 06:09:31;;;;;;;16.63;12.65;;;;;;;12.95;77.86;98492.91;5087850;28;20032;-82
2022/09/25 06:11:56;;;;;;;18.70;12.27;;;;;;;13.08;77.15;98487.81;5099123;28;20036;-82
2022/09/25 06:14:22;;;;;;;26.83;18.33;;;;;;;12.74;78.85;98497.50;5068006;28;20020;-82
2022/09/25 06:16:50;;;;;;;17.20;12.82;;;;;;;13.12;77.19;98504.94;5086970;28;20089;-82
2022/09/25 06:19:16;;;;;;;25.65;13.85;;;;;;;13.05;77.08;98495.59;5100886;28;20053;-82
2022/09/25 06:21:45;;;;;;;18.17;13.55;;;;;;;13.01;77.85;98505.22;5082977;28;20421;-82
2022/09/25 06:24:11;;;;;;;21.05;14.93;;;;;;;12.67;79.53;98499.66;5107149;28;20038;-82
2022/09/25 06:26:36;;;;;;;19.70;12.63;;;;;;;13.12;77.66;98504.13;5070445;28;20479;-82
2022/09/25 06:29:02;;;;;;;21.48;15.40;;;;;;;12.68;79.67;98507.44;5089587;28;20031;-82
2022/09/25 06:31:28;;;;;;;25.23;17.75;;;;;;;12.66;79.18;98484.66;5103123;28;20031;-82
2022/09/25 06:33:53;;;;;;;17.50;13.18;;;;;;;12.90;78.13;98493.72;5103617;28;20046;-82
2022/09/25 06:36:19;;;;;;;25.33;17.85;;;;;;;12.89;79.09;98499.38;5072476;28;20053;-82
2022/09/25 06:38:44;;;;;;;18.88;13.75;;;;;;;12.94;77.86;98496.66;5105017;28;20092;-82
2022/09/25 06:41:11;;;;;;;17.10;12.25;;;;;;;13.26;77.12;98507.81;5088660;28;20028;-82
2022/09/25 06:43:36;;;;;;;16.40;12.90;;;;;;;13.14;77.17;98491.28;5091767;28;20038;-82
2022/09/25 06:46:02;;;;;;;19.20;14.07;;;;;;;12.97;77.94;98491.56;5086461;28;20023;-82
2022/09/25 06:48:29;;;;;;;20.83;14.98;;;;;;;12.65;80.49;98512.50;5104614;28;20039;-82
2022/09/25 06:50:56;;;;;;;28.25;19.88;;;;;;;12.82;79.70;98510.31;5107438;28;20114;-82
2022/09/25 06:53:23;;;;;;;19.65;13.07;;;;;;;12.86;78.88;98506.06;5106627;28;20416;-82
2022/09/25 06:55:49;;;;;;;24.80;18.85;;;;;;;12.63;81.01;98487.88;5108201;28;20035;-83
2022/09/25 06:58:22;;;;;;;27.95;19.38;;;;;;;12.68;81.15;98498.59;5088176;28;20144;-82
2022/09/25 07:00:52;;;;;;;24.67;16.38;;;;;;;12.81;79.92;98508.75;5110267;28;20035;-82
2022/09/25 07:06:04;;;;;;;17.27;11.88;;;;;;;12.72;79.75;98495.09;5108812;28;20072;-82
2022/09/25 07:08:30;;;;;;;18.45;12.77;;;;;;;12.92;78.99;98493.44;5108902;28;20035;-82
2022/09/25 07:10:57;;;;;;;17.35;12.70;;;;;;;12.96;78.85;98514.06;5117743;27;20027;-82
2022/09/25 07:13:25;;;;;;;24.15;14.15;;;;;;;12.95;78.95;98512.47;5109769;28;20921;-83
2022/09/25 07:15:58;;;;;;;28.73;17.63;;;;;;;12.89;79.90;98510.06;5110876;28;20439;-82
2022/09/25 07:18:25;;;;;;;16.88;11.60;;;;;;;13.12;78.11;98513.00;5100415;28;20487;-82
2022/09/25 07:20:51;;;;;;;13.15;11.20;;;;;;;13.24;77.42;98512.66;5110424;28;20031;-83
2022/09/25 07:23:19;;;;;;;15.73;12.00;;;;;;;13.08;77.74;98495.03;5106966;28;20027;-81
2022/09/25 07:25:45;;;;;;;17.90;11.07;;;;;;;13.26;77.57;98511.31;5104106;28;20028;-82
2022/09/25 07:28:12;;;;;;;15.10;11.60;;;;;;;13.38;76.94;98519.88;5068136;28;20050;-82
2022/09/25 07:30:38;;;;;;;18.20;12.27;;;;;;;12.90;79.02;98507.13;5104703;28;20038;-82
2022/09/25 07:33:03;;;;;;;21.38;15.27;;;;;;;12.62;80.38;98519.19;5103686;28;20039;-80
2022/09/25 07:35:29;;;;;;;29.05;20.02;;;;;;;12.72;80.58;98513.84;5108815;28;20031;-80
2022/09/25 07:37:56;;;;;;;20.38;13.07;;;;;;;12.77;79.73;98511.16;5102125;28;20024;-80
2022/09/25 07:40:21;;;;;;;30.00;19.75;;;;;;;12.67;80.27;98505.00;5108780;28;20020;-79
2022/09/25 07:42:47;;;;;;;23.85;16.20;;;;;;;12.97;79.26;98507.66;5108896;28;20034;-80
2022/09/25 07:45:12;;;;;;;18.80;12.52;;;;;;;13.02;78.29;98502.25;5110554;28;20034;-80
2022/09/25 07:47:38;;;;;;;30.30;20.58;;;;;;;12.72;80.63;98505.00;5092381;28;20023;-80
2022/09/25 07:50:03;;;;;;;37.95;21.70;;;;;;;12.86;80.11;98494.53;5079665;28;20529;-79
2022/09/25 07:52:32;;;;;;;20.60;13.02;;;;;;;13.11;78.65;98492.63;5106162;28;20506;-80
2022/09/25 07:54:58;;;;;;;22.40;13.75;;;;;;;13.21;78.21;98506.00;5106368;28;20032;-80
2022/09/25 07:57:23;;;;;;;24.02;15.00;;;;;;;13.03;79.03;98511.09;5105042;28;20039;-80
2022/09/25 07:59:49;;;;;;;22.92;16.13;;;;;;;12.89;79.09;98499.38;5111608;27;20047;-80
2022/09/25 08:02:14;;;;;;;27.08;16.98;;;;;;;12.95;79.64;98501.75;5109646;28;20059;-80
2022/09/25 08:04:40;;;;;;;24.58;19.10;;;;;;;13.10;78.36;98507.09;5110736;28;20026;-80
2022/09/25 08:07:05;;;;;;;19.20;14.50;;;;;;;13.15;77.95;98498.25;5103891;28;20019;-79
2022/09/25 08:09:30;;;;;;;25.48;15.13;;;;;;;13.15;77.85;98501.69;5076225;28;20035;-80
2022/09/25 08:11:56;;;;;;;20.90;13.25;;;;;;;13.06;78.59;98506.03;5114878;27;20134;-79
2022/09/25 08:14:21;;;;;;;18.52;13.05;;;;;;;13.13;78.68;98519.13;5110359;28;20023;-80
2022/09/25 08:16:48;;;;;;;17.40;13.05;;;;;;;13.47;77.76;98520.09;5099646;28;20089;-80
2022/09/25 08:19:16;;;;;;;20.52;14.15;;;;;;;13.13;78.45;98519.94;5087574;28;20037;-80
2022/09/25 08:21:42;;;;;;;24.65;17.40;;;;;;;12.61;80.03;98493.50;5107239;28;20360;-80
2022/09/25 08:24:08;;;;;;;18.98;12.38;;;;;;;13.16;78.09;98515.91;5109850;28;20461;-80
2022/09/25 08:26:33;;;;;;;24.20;14.20;;;;;;;13.02;78.71;98528.25;5089965;28;20027;-80
2022/09/25 08:28:59;;;;;;;14.98;11.75;;;;;;;12.97;78.74;98518.34;5110458;28;20019;-80
2022/09/25 08:31:25;;;;;;;18.95;13.40;;;;;;;13.29;77.93;98518.81;5108136;28;20027;-80
2022/09/25 08:33:50;;;;;;;19.40;12.48;;;;;;;13.24;77.95;98524.19;5081485;28;20035;-80
2022/09/25 08:36:16;;;;;;;18.85;13.98;;;;;;;12.73;79.86;98528.03;5109432;28;20031;-79
2022/09/25 08:38:42;;;;;;;19.63;12.40;;;;;;;13.01;78.96;98519.41;5103082;28;20109;-80
2022/09/25 08:41:26;;;;;;;19.70;11.88;;;;;;;13.08;78.61;98529.88;5124599;27;20062;-79
2022/09/25 08:43:57;;;;;;;15.88;11.50;;;;;;;13.23;78.19;98530.66;5107303;28;20032;-80
2022/09/25 08:49:26;;;;;;;20.38;11.13;;;;;;;12.91;79.01;98514.06;5106659;28;20112;-80
2022/09/25 08:51:58;;;;;;;18.77;11.50;;;;;;;13.07;78.65;98533.63;5085939;28;20273;-80
2022/09/25 08:54:26;;;;;;;13.82;9.73;;;;;;;13.33;77.84;98530.59;5105820;28;20035;-80
2022/09/25 08:57:29;;;;;;;14.27;9.73;;;;;;;13.40;76.99;98538.34;5103931;28;20104;-81
2022/09/25 09:00:00;;;;;;;16.30;9.27;;;;;;;13.13;78.15;98533.34;5103913;28;20394;-80
2022/09/25 09:02:39;;;;;;;18.67;10.93;;;;;;;13.00;78.58;98535.75;5104210;28;20286;-80
2022/09/25 09:05:14;;;;;;;21.33;12.75;;;;;;;12.80;79.64;98526.69;5105035;28;20490;-80
2022/09/25 09:07:45;;;;;;;15.43;11.53;;;;;;;12.87;79.42;98531.75;5104701;28;20073;-80
2022/09/25 09:10:36;;;;;;;15.82;11.52;;;;;;;13.03;78.72;98521.81;5104767;28;20031;-81
2022/09/25 09:13:04;;;;;;;23.35;11.10;;;;;;;12.89;79.17;98537.63;5100131;28;20441;-80
2022/09/25 09:15:35;;;;;;;17.98;9.07;;;;;;;13.37;77.45;98533.53;5102905;28;20035;-80
2022/09/25 09:18:15;;;;;;;18.95;11.02;;;;;;;13.06;78.71;98532.81;5100441;28;20031;-80
2022/09/25 09:20:49;;;;;;;13.50;8.40;;;;;;;13.31;77.40;98527.38;5104538;28;20025;-80
2022/09/25 09:23:19;;;;;;;17.65;9.38;;;;;;;12.87;78.35;98538.97;5101962;28;20024;-80
2022/09/25 09:26:28;;;;;;;8.50;7.35;;;;;;;12.99;78.51;98534.97;5105464;28;20023;-80
2022/09/25 09:29:32;;;;;;;11.23;8.35;;;;;;;13.15;77.92;98533.09;5101579;28;20035;-80
2022/09/25 09:32:35;;;;;;;17.27;9.23;;;;;;;13.11;78.37;98530.13;5101689;28;20028;-81
2022/09/25 09:35:22;;;;;;;11.48;7.68;;;;;;;13.11;77.93;98535.47;5101284;28;20538;-80
2022/09/25 09:38:00;;;;;;;11.82;7.53;;;;;;;13.26;77.40;98530.06;5103717;28;20022;-80
2022/09/25 09:40:59;;;;;;;13.30;7.68;;;;;;;13.14;78.17;98534.94;5104370;28;20032;-80
2022/09/25 09:43:47;;;;;;;10.85;7.22;;;;;;;13.63;76.32;98531.56;5102489;28;20543;-81
2022/09/25 09:46:31;;;;;;;13.70;7.20;;;;;;;13.30;78.09;98528.44;5102824;28;20034;-80
2022/09/25 09:49:12;;;;;;;14.60;7.15;;;;;;;13.03;78.33;98527.97;5106411;28;20058;-80
2022/09/25 09:51:46;;;;;;;7.00;6.30;;;;;;;13.24;77.16;98523.38;5104538;28;20127;-80
2022/09/25 09:54:35;;;;;;;12.75;6.93;;;;;;;13.31;76.94;98538.13;5101186;28;20059;-80
2022/09/25 09:57:07;;;;;;;13.73;7.88;;;;;;;13.44;76.24;98531.34;5097086;28;20047;-80
2022/09/25 09:59:45;;;;;;;8.10;6.68;;;;;;;13.60;76.12;98519.50;5099764;28;20680;-80
2022/09/25 10:02:26;;;;;;;9.75;6.70;;;;;;;13.50;76.15;98527.56;5100404;28;20032;-81
2022/09/25 10:04:54;;;;;;;11.95;7.53;;;;;;;13.19;76.71;98520.75;5103498;28;20483;-80
2022/09/25 10:07:22;;;;;;;11.07;6.30;;;;;;;13.22;76.79;98530.91;5105310;28;20028;-80
2022/09/25 10:09:49;;;;;;;12.88;7.45;;;;;;;12.73;78.23;98514.66;5101045;28;20027;-80
2022/09/25 10:12:27;;;;;;;8.40;6.00;;;;;;;13.18;77.11;98509.22;5102962;28;20123;-80
2022/09/25 10:14:53;;;;;;;11.05;6.53;;;;;;;13.06;77.63;98524.78;5102788;28;20058;-80
2022/09/25 10:17:22;;;;;;;8.52;6.35;;;;;;;13.24;77.35;98532.22;5103222;28;20071;-80
2022/09/25 10:19:52;;;;;;;12.75;7.28;;;;;;;13.19;76.57;98515.38;5100965;28;20371;-80
2022/09/25 10:22:22;;;;;;;9.93;6.15;;;;;;;13.21;77.46;98519.41;5102141;28;20122;-81
2022/09/25 10:24:54;;;;;;;10.45;6.68;;;;;;;13.21;77.28;98510.53;5099276;28;20023;-80
2022/09/25 10:27:19;;;;;;;7.03;5.90;;;;;;;13.59;75.70;98520.56;5099487;28;20038;-83
2022/09/25 10:29:45;;;;;;;11.43;6.70;;;;;;;13.26;75.87;98510.50;5100939;28;20403;-82
2022/09/25 10:32:10;;;;;;;9.45;7.13;;;;;;;13.09;77.05;98516.19;5106806;28;20027;-82
2022/09/25 10:34:38;;;;;;;9.57;6.07;;;;;;;13.34;76.85;98524.19;5108181;28;20573;-82
2022/09/25 10:37:18;;;;;;;11.63;5.85;;;;;;;13.43;76.06;98495.69;5087076;28;20063;-82
2022/09/25 10:40:00;;;;;;;11.77;7.20;;;;;;;13.31;76.12;98503.25;5109858;28;20055;-81
2022/09/25 10:42:40;;;;;;;12.50;6.63;;;;;;;13.29;76.21;98502.75;5105849;28;20035;-81
2022/09/25 10:45:35;;;;;;;10.75;6.20;;;;;;;13.56;76.09;98512.28;5106636;28;20028;-81
2022/09/25 10:51:05;;;;;;;7.15;5.30;;;;;;;13.91;74.86;98509.41;5104612;28;20034;-81
2022/09/25 10:53:30;;;;;;;8.98;5.60;;;;;;;13.74;74.33;98511.66;5106297;28;20073;-82
2022/09/25 10:56:11;;;;;;;9.43;5.60;;;;;;;13.72;75.04;98509.22;5099991;28;20035;-82
2022/09/25 10:58:49;;;;;;;7.97;5.78;;;;;;;13.73;74.81;98513.53;5088659;28;20360;-81
2022/09/25 11:01:15;;;;;;;13.15;6.22;;;;;;;13.80;75.06;98515.91;5104710;28;20024;-81
2022/09/25 11:03:55;;;;;;;8.98;5.32;;;;;;;13.93;74.20;98497.31;5108310;28;20034;-81
2022/09/25 11:06:26;;;;;;;9.43;5.13;;;;;;;14.02;73.71;98506.34;5107614;28;20035;-82
2022/09/25 11:09:11;;;;;;;8.50;5.88;;;;;;;13.96;73.78;98515.53;5087908;28;20462;-81
2022/09/25 11:11:39;;;;;;;12.60;6.63;;;;;;;13.81;74.20;98507.56;5108578;28;20021;-81
2022/09/25 11:14:18;;;;;;;9.35;5.28;;;;;;;14.12;73.86;98509.00;5108075;28;20034;-81
2022/09/25 11:16:51;;;;;;;9.35;6.60;;;;;;;14.12;74.05;98508.19;5106911;28;20035;-81
2022/09/25 11:19:31;;;;;;;6.97;5.30;;;;;;;14.17;73.44;98506.28;5111636;28;20019;-81
2022/09/25 11:22:24;;;;;;;15.40;6.38;;;;;;;14.20;73.24;98504.88;5122311;27;20050;-81
2022/09/25 11:25:45;;;;;;;13.80;5.45;;;;;;;14.01;73.87;98498.59;5110431;28;20490;-81
2022/09/25 11:28:20;;;;;;;9.35;6.10;;;;;;;14.35;72.78;98507.47;5064993;28;20101;-81
2022/09/25 11:30:57;;;;;;;9.05;4.75;;;;;;;14.18;73.40;98485.59;5107426;28;20060;-81
2022/09/25 11:33:41;;;;;;;18.75;8.65;;;;;;;14.17;73.59;98508.16;5109719;28;20452;-81
2022/09/25 11:36:21;;;;;;;17.27;7.68;;;;;;;13.96;74.04;98475.28;5106429;28;20080;-81
2022/09/25 11:42:04;;;;;;;10.18;5.72;;;;;;;14.22;73.20;98497.34;5107428;28;20018;-80
2022/09/25 11:44:40;;;;;;;8.23;5.85;;;;;;;14.11;73.12;98471.66;5106339;28;20715;-81
2022/09/25 11:47:23;;;;;;;11.55;6.07;;;;;;;14.21;73.11;98501.13;5096417;28;20024;-81
2022/09/25 11:49:52;;;;;;;12.90;6.15;;;;;;;14.11;73.62;98491.28;5098643;28;20080;-81
2022/09/25 11:52:32;;;;;;;10.23;5.95;;;;;;;14.20;73.20;98488.78;5105844;28;20100;-80
2022/09/25 11:55:22;;;;;;;12.52;6.90;;;;;;;14.22;73.15;98483.94;5104995;28;20054;-81
2022/09/25 11:57:55;;;;;;;8.52;5.60;;;;;;;14.25;72.69;98486.88;5108339;28;20023;-80
2022/09/25 12:00:25;;;;;;;11.68;6.60;;;;;;;14.30;72.52;98478.03;5107796;28;20016;-80